createdAt,value
2019-02-15T00:00:28.121Z,14.45
2019-02-15T00:02:56.979Z,14.93
2019-02-15T00:05:25.846Z,13.95
2019-02-15T00:07:54.733Z,13.70
2019-02-15T00:10:23.601Z,12.93
2019-02-15T00:12:52.457Z,12.40
2019-02-15T00:15:21.349Z,11.73
2019-02-15T00:17:51.859Z,11.63
2019-02-15T00:20:37.662Z,12.43
2019-02-15T00:23:06.545Z,12.80
2019-02-15T00:25:35.410Z,12.82
2019-02-15T00:28:04.283Z,12.25
2019-02-15T00:30:33.173Z,12.63
2019-02-15T00:33:02.043Z,11.35
2019-02-15T00:35:30.899Z,11.10
2019-02-15T00:37:59.780Z,11.25
2019-02-15T00:40:28.656Z,11.30
2019-02-15T00:42:57.545Z,11.50
2019-02-15T00:45:28.055Z,10.40
2019-02-15T00:47:58.555Z,11.20
2019-02-15T00:50:29.081Z,11.08
2019-02-15T00:52:59.586Z,11.15
2019-02-15T00:55:30.085Z,11.28
2019-02-15T00:58:03.345Z,11.25
2019-02-15T01:00:36.255Z,10.58
2019-02-15T01:03:23.086Z,10.32
2019-02-15T01:05:59.631Z,12.05
2019-02-15T01:08:41.989Z,11.85
2019-02-15T01:11:12.505Z,11.40
2019-02-15T01:13:41.384Z,11.60
2019-02-15T01:16:10.243Z,11.33
2019-02-15T01:18:39.137Z,10.50
2019-02-15T01:21:07.999Z,12.05
2019-02-15T01:23:36.858Z,10.78
2019-02-15T01:26:10.029Z,10.95
2019-02-15T01:28:46.494Z,11.25
2019-02-15T01:31:33.128Z,12.00
2019-02-15T01:34:03.629Z,12.20
2019-02-15T01:36:36.743Z,12.03
2019-02-15T01:39:17.474Z,12.78
2019-02-15T01:41:59.897Z,11.73
2019-02-15T01:44:33.056Z,11.55
2019-02-15T01:47:03.574Z,11.90
2019-02-15T01:49:32.431Z,11.03
2019-02-15T01:52:01.325Z,11.88
2019-02-15T01:54:30.183Z,12.43
2019-02-15T01:56:59.036Z,11.95
2019-02-15T01:59:27.909Z,12.82
2019-02-15T02:01:56.772Z,11.97
2019-02-15T02:04:25.663Z,10.45
2019-02-15T02:06:54.671Z,10.88
2019-02-15T02:09:23.521Z,10.75
2019-02-15T02:11:52.404Z,11.20
2019-02-15T02:14:21.519Z,11.73
2019-02-15T02:16:50.417Z,11.57
2019-02-15T02:19:19.271Z,11.78
2019-02-15T02:21:48.120Z,11.18
2019-02-15T02:24:16.999Z,11.25
2019-02-15T02:26:45.861Z,11.78
2019-02-15T02:29:14.741Z,11.15
2019-02-15T02:31:43.600Z,10.90
2019-02-15T02:34:12.470Z,11.78
2019-02-15T02:36:49.399Z,11.30
2019-02-15T02:39:18.264Z,11.53
2019-02-15T02:41:47.296Z,12.30
2019-02-15T02:44:16.178Z,12.78
2019-02-15T02:46:45.026Z,11.88
2019-02-15T02:49:13.884Z,11.30
2019-02-15T02:51:42.759Z,12.47
2019-02-15T02:54:11.631Z,12.40
2019-02-15T02:56:40.482Z,12.05
2019-02-15T02:59:09.372Z,12.18
2019-02-15T03:01:38.223Z,12.93
2019-02-15T03:04:07.096Z,13.22
2019-02-15T03:06:35.958Z,12.80
2019-02-15T03:09:07.940Z,12.55
2019-02-15T03:11:36.797Z,11.60
2019-02-15T03:14:11.331Z,11.80
2019-02-15T03:16:36.255Z,11.57
2019-02-15T03:19:05.128Z,11.90
2019-02-15T03:21:33.991Z,11.30
2019-02-15T03:24:02.908Z,9.93
2019-02-15T03:26:31.776Z,11.03
2019-02-15T03:29:00.640Z,10.40
2019-02-15T03:31:29.488Z,10.28
2019-02-15T03:33:58.392Z,11.65
2019-02-15T03:36:31.591Z,10.45
2019-02-15T03:39:10.810Z,10.15
2019-02-15T03:41:39.653Z,9.70
2019-02-15T03:44:08.508Z,10.48
2019-02-15T03:46:37.393Z,11.22
2019-02-15T03:49:06.282Z,11.20
2019-02-15T03:51:35.135Z,11.08
2019-02-15T03:54:04.013Z,11.00
2019-02-15T03:56:32.857Z,10.72
2019-02-15T03:59:01.718Z,9.45
2019-02-15T04:01:30.603Z,11.05
2019-02-15T04:03:59.442Z,10.75
2019-02-15T04:06:28.333Z,11.33
2019-02-15T04:08:57.204Z,10.72
2019-02-15T04:11:26.103Z,14.95
2019-02-15T04:13:55.022Z,11.25
2019-02-15T04:16:23.873Z,10.40
2019-02-15T04:18:52.729Z,10.80
2019-02-15T04:21:21.666Z,12.13
2019-02-15T04:23:50.474Z,12.68
2019-02-15T04:26:19.343Z,12.15
2019-02-15T04:28:48.208Z,10.80
2019-02-15T04:31:17.078Z,10.25
2019-02-15T04:33:45.954Z,11.05
2019-02-15T04:36:14.816Z,11.68
2019-02-15T04:38:43.688Z,12.13
2019-02-15T04:41:12.578Z,11.85
2019-02-15T04:43:41.436Z,11.68
2019-02-15T04:46:10.334Z,12.75
2019-02-15T04:48:39.183Z,11.68
2019-02-15T04:51:08.069Z,10.75
2019-02-15T04:53:36.932Z,12.37
2019-02-15T04:56:05.795Z,12.47
2019-02-15T04:58:34.668Z,12.25
2019-02-15T05:01:03.551Z,12.93
2019-02-15T05:03:32.422Z,11.97
2019-02-15T05:06:01.288Z,13.45
2019-02-15T05:08:30.194Z,12.73
2019-02-15T05:10:59.080Z,13.00
2019-02-15T05:13:27.945Z,13.38
2019-02-15T05:15:56.808Z,11.93
2019-02-15T05:18:25.698Z,13.30
2019-02-15T05:20:54.559Z,13.03
2019-02-15T05:23:23.408Z,13.93
2019-02-15T05:25:52.274Z,13.22
2019-02-15T05:28:21.137Z,13.10
2019-02-15T05:30:49.994Z,13.62
2019-02-15T05:33:18.867Z,12.90
2019-02-15T05:35:47.740Z,13.08
2019-02-15T05:38:16.701Z,13.53
2019-02-15T05:40:45.591Z,12.73
2019-02-15T05:43:14.448Z,13.60
2019-02-15T05:45:43.318Z,13.38
2019-02-15T05:48:12.176Z,12.00
2019-02-15T05:50:41.039Z,13.65
2019-02-15T05:53:09.906Z,14.65
2019-02-15T05:55:38.803Z,13.70
2019-02-15T05:58:07.654Z,13.35
2019-02-15T06:00:37.347Z,12.07
2019-02-15T06:03:06.412Z,11.43
2019-02-15T06:05:35.291Z,14.05
2019-02-15T06:08:04.191Z,12.95
2019-02-15T06:10:33.048Z,15.80
2019-02-15T06:13:01.906Z,13.28
2019-02-15T06:15:30.794Z,12.43
2019-02-15T06:17:59.656Z,13.20
2019-02-15T06:20:28.545Z,12.23
2019-02-15T06:22:57.437Z,13.58
2019-02-15T06:25:26.316Z,14.13
2019-02-15T06:27:55.155Z,26.62
2019-02-15T06:30:24.043Z,11.57
2019-02-15T06:32:52.903Z,12.55
2019-02-15T06:35:21.760Z,16.57
2019-02-15T06:37:50.685Z,13.32
2019-02-15T06:40:19.544Z,11.78
2019-02-15T06:42:48.417Z,13.30
2019-02-15T06:45:24.386Z,11.50
2019-02-15T06:47:47.890Z,12.70
2019-02-15T06:50:16.766Z,11.83
2019-02-15T06:52:45.639Z,13.05
2019-02-15T06:55:14.493Z,11.22
2019-02-15T06:57:43.372Z,12.10
2019-02-15T07:00:23.080Z,24.35
2019-02-15T07:02:59.379Z,19.48
2019-02-15T07:05:28.266Z,14.45
2019-02-15T07:07:57.202Z,11.35
2019-02-15T07:10:26.085Z,12.28
2019-02-15T07:12:54.976Z,11.38
2019-02-15T07:15:23.908Z,11.35
2019-02-15T07:17:52.772Z,10.80
2019-02-15T07:20:21.861Z,13.58
2019-02-15T07:22:50.760Z,12.68
2019-02-15T07:25:19.636Z,13.53
2019-02-15T07:27:48.507Z,12.43
2019-02-15T07:30:17.490Z,12.73
2019-02-15T07:32:46.316Z,13.13
2019-02-15T07:35:15.203Z,12.00
2019-02-15T07:37:44.107Z,10.90
2019-02-15T07:40:12.995Z,10.25
2019-02-15T07:42:41.861Z,12.45
2019-02-15T07:45:11.510Z,11.53
2019-02-15T07:47:40.371Z,10.88
2019-02-15T07:50:11.928Z,10.50
2019-02-15T07:52:40.815Z,11.68
2019-02-15T07:55:10.062Z,11.90
2019-02-15T07:57:38.927Z,11.03
2019-02-15T08:00:13.642Z,11.53
2019-02-15T08:02:42.486Z,12.98
2019-02-15T08:05:11.744Z,10.82
2019-02-15T08:07:40.631Z,10.93
2019-02-15T08:10:11.160Z,9.95
2019-02-15T08:12:40.036Z,10.90
2019-02-15T08:15:10.519Z,9.68
2019-02-15T08:17:39.389Z,9.45
2019-02-15T08:20:10.853Z,9.80
2019-02-15T08:22:39.735Z,11.03
2019-02-15T08:25:09.439Z,11.93
2019-02-15T08:27:39.095Z,10.43
2019-02-15T08:30:11.790Z,9.83
2019-02-15T08:32:40.677Z,10.38
2019-02-15T08:35:10.882Z,9.80
2019-02-15T08:37:39.750Z,9.88
2019-02-15T08:40:10.668Z,9.93
2019-02-15T08:42:39.529Z,10.00
2019-02-15T08:45:11.470Z,10.55
2019-02-15T08:47:40.591Z,10.15
2019-02-15T08:50:11.327Z,10.18
2019-02-15T08:52:40.206Z,10.90
2019-02-15T08:55:10.912Z,10.05
2019-02-15T08:57:39.820Z,10.78
2019-02-15T09:00:11.249Z,10.85
2019-02-15T09:02:40.134Z,11.40
2019-02-15T09:05:11.440Z,11.08
2019-02-15T09:07:40.373Z,11.28
2019-02-15T09:10:11.516Z,9.98
2019-02-15T09:12:40.362Z,10.93
2019-02-15T09:15:12.152Z,11.53
2019-02-15T09:17:41.103Z,10.70
2019-02-15T09:20:11.608Z,10.63
2019-02-15T09:22:40.195Z,11.43
2019-02-15T09:25:10.807Z,10.83
2019-02-15T09:27:41.088Z,11.53
2019-02-15T09:30:14.517Z,11.70
2019-02-15T09:32:43.082Z,11.30
2019-02-15T09:35:12.516Z,10.77
2019-02-15T09:37:41.106Z,11.47
2019-02-15T09:40:10.740Z,12.17
2019-02-15T09:42:39.294Z,11.77
2019-02-15T09:45:12.673Z,11.63
2019-02-15T09:47:41.246Z,11.77
2019-02-15T09:50:12.217Z,11.83
2019-02-15T09:52:41.146Z,12.33
2019-02-15T09:55:09.730Z,11.87
2019-02-15T09:57:38.345Z,11.63
2019-02-15T10:00:10.997Z,12.40
2019-02-15T10:02:39.630Z,12.27
2019-02-15T10:05:09.039Z,12.30
2019-02-15T10:07:37.638Z,12.33
2019-02-15T10:10:08.854Z,11.53
2019-02-15T10:12:37.404Z,11.90
2019-02-15T10:15:10.526Z,12.53
2019-02-15T10:17:39.100Z,12.80
2019-02-15T10:20:09.985Z,12.80
2019-02-15T10:22:38.553Z,11.63
2019-02-15T10:25:08.972Z,12.20
2019-02-15T10:27:37.551Z,12.83
2019-02-15T10:30:09.327Z,12.57
2019-02-15T10:32:37.893Z,11.93
2019-02-15T10:35:11.064Z,12.13
2019-02-15T10:37:39.645Z,11.47
2019-02-15T10:40:11.982Z,11.83
2019-02-15T10:42:40.561Z,10.90
2019-02-15T10:45:16.597Z,11.87
2019-02-15T10:47:45.203Z,11.00
2019-02-15T10:50:13.762Z,11.03
2019-02-15T10:52:42.343Z,11.97
2019-02-15T10:55:11.138Z,11.73
2019-02-15T10:57:39.716Z,11.53
2019-02-15T11:00:15.475Z,10.33
2019-02-15T11:02:44.091Z,10.13
2019-02-15T11:05:12.662Z,10.53
2019-02-15T11:07:41.243Z,9.83
2019-02-15T11:10:10.350Z,9.60
2019-02-15T11:12:38.930Z,9.03
2019-02-15T11:15:13.293Z,9.60
2019-02-15T11:17:41.885Z,11.07
2019-02-15T11:20:13.063Z,8.90
2019-02-15T11:22:41.651Z,10.10
2019-02-15T11:25:11.576Z,9.37
2019-02-15T11:27:40.146Z,9.43
2019-02-15T11:30:11.529Z,9.27
2019-02-15T11:32:40.132Z,8.77
2019-02-15T11:35:11.032Z,9.13
2019-02-15T11:37:39.594Z,8.10
2019-02-15T11:40:11.236Z,6.97
2019-02-15T11:42:39.830Z,7.13
2019-02-15T11:45:14.058Z,6.83
2019-02-15T11:47:42.621Z,6.23
2019-02-15T11:50:13.226Z,6.43
2019-02-15T11:52:41.792Z,7.80
2019-02-15T11:55:11.242Z,6.37
2019-02-15T11:57:39.894Z,6.83
2019-02-15T12:00:14.544Z,7.13
2019-02-15T12:02:43.047Z,7.03
2019-02-15T12:05:11.634Z,6.97
2019-02-15T12:07:40.196Z,6.97
2019-02-15T12:10:10.493Z,7.80
2019-02-15T12:12:39.081Z,8.27
2019-02-15T12:15:09.304Z,7.43
2019-02-15T12:17:37.870Z,7.27
2019-02-15T12:20:11.696Z,6.80
2019-02-15T12:22:40.295Z,7.23
2019-02-15T12:25:09.257Z,7.57
2019-02-15T12:27:37.797Z,7.03
2019-02-15T12:30:11.745Z,7.37
2019-02-15T12:32:40.307Z,6.37
2019-02-15T12:35:10.131Z,6.00
2019-02-15T12:37:38.713Z,7.07
2019-02-15T12:40:09.242Z,6.43
2019-02-15T12:42:37.815Z,7.43
2019-02-15T12:45:09.731Z,6.97
2019-02-15T12:47:38.326Z,7.43
2019-02-15T12:50:10.339Z,8.10
2019-02-15T12:52:39.021Z,6.87
2019-02-15T12:55:07.764Z,6.63
2019-02-15T12:57:36.409Z,6.63
2019-02-15T13:00:08.150Z,6.17
2019-02-15T13:02:36.784Z,7.20
2019-02-15T13:05:07.437Z,7.13
2019-02-15T13:07:36.003Z,5.77
2019-02-15T13:10:07.301Z,6.60
2019-02-15T13:12:35.882Z,7.23
2019-02-15T13:15:04.972Z,7.20
2019-02-15T13:17:35.196Z,7.00
2019-02-15T13:20:04.648Z,7.13
2019-02-15T13:22:33.259Z,8.63
2019-02-15T13:25:01.830Z,9.03
2019-02-15T13:27:30.435Z,6.63
2019-02-15T13:29:58.980Z,6.30
2019-02-15T13:32:27.564Z,6.83
2019-02-15T13:34:56.215Z,6.20
2019-02-15T13:37:24.819Z,5.60
2019-02-15T13:39:53.365Z,5.57
2019-02-15T13:42:21.943Z,5.27
2019-02-15T13:44:50.524Z,5.77
2019-02-15T13:47:19.079Z,6.10
2019-02-15T13:49:47.643Z,5.90
2019-02-15T13:52:16.247Z,6.03
2019-02-15T13:54:44.808Z,6.80
2019-02-15T13:57:13.367Z,6.27
2019-02-15T13:59:41.951Z,5.07
2019-02-15T14:02:10.535Z,5.33
2019-02-15T14:04:39.108Z,4.80
2019-02-15T14:07:16.302Z,5.80
2019-02-15T14:09:44.895Z,6.77
2019-02-15T14:12:13.483Z,6.13
2019-02-15T14:14:42.085Z,9.77
2019-02-15T14:17:10.663Z,9.10
2019-02-15T14:19:39.237Z,5.97
2019-02-15T14:22:07.829Z,5.77
2019-02-15T14:24:36.415Z,7.87
2019-02-15T14:27:04.989Z,6.57
2019-02-15T14:29:33.567Z,4.37
2019-02-15T14:32:02.154Z,4.37
2019-02-15T14:34:30.745Z,3.80
2019-02-15T14:36:59.353Z,3.10
2019-02-15T14:39:27.913Z,3.50
2019-02-15T14:41:56.484Z,4.70
2019-02-15T14:44:25.122Z,5.20
2019-02-15T14:46:53.645Z,3.30
2019-02-15T14:49:22.224Z,4.10
2019-02-15T14:51:50.814Z,5.50
2019-02-15T14:54:19.403Z,4.60
2019-02-15T14:56:47.980Z,9.10
2019-02-15T14:59:16.566Z,6.97
2019-02-15T15:01:45.425Z,5.03
2019-02-15T15:04:13.989Z,4.27
2019-02-15T15:06:42.578Z,7.43
2019-02-15T15:09:11.140Z,9.90
2019-02-15T15:11:39.701Z,7.90
2019-02-15T15:14:08.284Z,7.30
2019-02-15T15:16:36.880Z,7.53
2019-02-15T15:19:05.461Z,7.37
2019-02-15T15:21:35.038Z,6.90
2019-02-15T15:24:03.710Z,7.20
2019-02-15T15:26:32.312Z,7.53
2019-02-15T15:29:00.916Z,6.10
2019-02-15T15:31:29.496Z,7.40
2019-02-15T15:33:58.063Z,8.77
2019-02-15T15:36:26.643Z,7.17
2019-02-15T15:38:55.222Z,6.73
2019-02-15T15:41:29.620Z,6.40
2019-02-15T15:43:58.183Z,5.97
2019-02-15T15:46:26.781Z,6.87
2019-02-15T15:48:55.386Z,8.47
2019-02-15T15:51:23.942Z,7.57
2019-02-15T15:53:52.520Z,7.53
2019-02-15T15:56:21.089Z,5.73
2019-02-15T15:58:51.546Z,6.57
2019-02-15T16:01:19.994Z,7.03
2019-02-15T16:03:48.581Z,6.70
2019-02-15T16:06:24.141Z,7.30
2019-02-15T16:08:47.500Z,6.83
2019-02-15T16:11:16.080Z,6.67
2019-02-15T16:13:44.653Z,7.90
2019-02-15T16:16:13.232Z,8.57
2019-02-15T16:18:41.840Z,8.83
2019-02-15T16:21:10.416Z,8.13
2019-02-15T16:23:38.985Z,8.57
2019-02-15T16:26:07.594Z,9.33
2019-02-15T16:28:36.141Z,8.93
2019-02-15T16:31:04.712Z,8.50
2019-02-15T16:33:33.289Z,8.47
2019-02-15T16:36:01.893Z,8.57
2019-02-15T16:38:30.485Z,9.00
2019-02-15T16:40:59.037Z,9.30
2019-02-15T16:43:27.614Z,8.30
2019-02-15T16:45:56.183Z,9.63
2019-02-15T16:48:24.767Z,9.90
2019-02-15T16:50:53.318Z,8.53
2019-02-15T16:53:21.934Z,10.33
2019-02-15T16:55:50.496Z,10.17
2019-02-15T16:58:19.086Z,10.20
2019-02-15T17:00:47.676Z,13.47
2019-02-15T17:03:16.224Z,10.27
2019-02-15T17:05:44.789Z,13.40
2019-02-15T17:08:13.374Z,14.67
2019-02-15T17:10:41.958Z,13.07
2019-02-15T17:13:10.555Z,14.17
2019-02-15T17:15:39.115Z,16.13
2019-02-15T17:18:07.682Z,16.90
2019-02-15T17:20:36.264Z,15.87
2019-02-15T17:23:04.859Z,15.47
2019-02-15T17:25:33.434Z,13.67
2019-02-15T17:28:02.023Z,13.67
2019-02-15T17:30:30.605Z,13.67
2019-02-15T17:32:59.188Z,15.83
2019-02-15T17:35:27.770Z,14.83
2019-02-15T17:37:56.360Z,15.60
2019-02-15T17:40:24.941Z,15.50
2019-02-15T17:42:53.529Z,16.37
2019-02-15T17:45:22.096Z,12.70
2019-02-15T17:47:50.683Z,11.37
2019-02-15T17:50:19.304Z,14.27
2019-02-15T17:52:48.055Z,17.07
2019-02-15T17:55:19.576Z,16.83
2019-02-15T17:57:48.168Z,15.10
2019-02-15T18:00:18.377Z,16.63
2019-02-15T18:02:46.970Z,16.47
2019-02-15T18:05:18.232Z,13.97
2019-02-15T18:07:50.881Z,13.17
2019-02-15T18:10:19.501Z,13.60
2019-02-15T18:12:48.070Z,13.70
2019-02-15T18:15:16.719Z,13.23
2019-02-15T18:17:45.295Z,13.20
2019-02-15T18:20:14.254Z,13.30
2019-02-15T18:22:42.847Z,12.90
2019-02-15T18:25:11.749Z,13.53
2019-02-15T18:27:40.391Z,13.33
2019-02-15T18:30:14.387Z,14.37
2019-02-15T18:32:42.959Z,15.80
2019-02-15T18:35:11.563Z,15.10
2019-02-15T18:37:40.152Z,13.57
2019-02-15T18:40:10.679Z,15.33
2019-02-15T18:42:39.275Z,16.40
2019-02-15T18:45:13.441Z,16.53
2019-02-15T18:47:42.097Z,17.30
2019-02-15T18:50:10.864Z,15.33
2019-02-15T18:52:39.424Z,15.67
2019-02-15T18:55:11.519Z,17.43
2019-02-15T18:57:40.126Z,15.60
2019-02-15T19:00:17.125Z,13.63
2019-02-15T19:02:48.652Z,16.30
2019-02-15T19:05:17.268Z,17.10
2019-02-15T19:07:45.839Z,12.50
2019-02-15T19:10:17.285Z,13.00
2019-02-15T19:12:46.052Z,14.97
2019-02-15T19:15:16.291Z,13.13
2019-02-15T19:17:44.882Z,14.20
2019-02-15T19:20:15.282Z,14.37
2019-02-15T19:22:43.968Z,16.10
2019-02-15T19:25:14.566Z,13.50
2019-02-15T19:27:43.178Z,14.47
2019-02-15T19:30:20.095Z,15.90
2019-02-15T19:32:48.871Z,15.93
2019-02-15T19:35:17.512Z,15.50
2019-02-15T19:37:46.095Z,15.47
2019-02-15T19:40:17.384Z,16.60
2019-02-15T19:42:46.951Z,16.77
2019-02-15T19:45:15.703Z,15.33
2019-02-15T19:47:44.310Z,15.07
2019-02-15T19:50:17.721Z,16.67
2019-02-15T19:52:48.137Z,14.30
2019-02-15T19:55:16.909Z,13.87
2019-02-15T19:57:45.444Z,14.70
2019-02-15T20:00:16.496Z,14.50
2019-02-15T20:02:45.096Z,13.50
2019-02-15T20:05:13.846Z,12.53
2019-02-15T20:07:42.420Z,11.90
2019-02-15T20:10:14.837Z,14.20
2019-02-15T20:12:43.460Z,13.80
2019-02-15T20:15:13.822Z,15.00
2019-02-15T20:17:42.448Z,13.90
2019-02-15T20:20:12.955Z,13.17
2019-02-15T20:22:41.625Z,13.57
2019-02-15T20:25:11.971Z,18.37
2019-02-15T20:27:40.575Z,13.50
2019-02-15T20:30:14.496Z,15.17
2019-02-15T20:32:43.112Z,14.80
2019-02-15T20:35:13.438Z,13.63
2019-02-15T20:37:42.075Z,14.17
2019-02-15T20:40:12.098Z,11.77
2019-02-15T20:42:40.716Z,13.17
2019-02-15T20:45:16.604Z,12.83
2019-02-15T20:47:45.214Z,12.73
2019-02-15T20:50:14.453Z,13.00
2019-02-15T20:52:43.044Z,13.00
2019-02-15T20:55:19.130Z,13.53
2019-02-15T20:57:47.702Z,14.97
2019-02-15T21:00:27.708Z,14.53
2019-02-15T21:02:56.295Z,14.17
2019-02-15T21:05:24.873Z,15.00
2019-02-15T21:07:53.467Z,15.37
2019-02-15T21:10:22.549Z,13.67
2019-02-15T21:12:51.170Z,13.60
2019-02-15T21:15:20.011Z,14.60
2019-02-15T21:17:49.524Z,14.60
2019-02-15T21:20:18.172Z,14.93
2019-02-15T21:22:46.715Z,14.23
2019-02-15T21:25:16.748Z,13.43
2019-02-15T21:27:45.424Z,13.03
2019-02-15T21:30:15.727Z,11.53
2019-02-15T21:32:44.329Z,14.13
2019-02-15T21:35:13.181Z,13.33
2019-02-15T21:37:41.784Z,12.90
2019-02-15T21:40:16.062Z,13.83
2019-02-15T21:42:44.643Z,12.53
2019-02-15T21:45:13.810Z,12.33
2019-02-15T21:47:42.479Z,13.27
2019-02-15T21:50:17.281Z,12.90
2019-02-15T21:52:44.299Z,12.33
2019-02-15T21:55:14.998Z,15.05
2019-02-15T21:57:43.881Z,15.48
2019-02-15T22:00:18.246Z,14.58
2019-02-15T22:02:47.120Z,15.15
2019-02-15T22:05:16.582Z,14.18
2019-02-15T22:07:45.613Z,14.87
2019-02-15T22:10:14.551Z,15.05
2019-02-15T22:12:43.423Z,16.55
2019-02-15T22:15:14.784Z,16.07
2019-02-15T22:17:43.695Z,14.35
2019-02-15T22:20:14.213Z,15.20
2019-02-15T22:22:43.091Z,15.65
2019-02-15T22:25:11.972Z,15.70
2019-02-15T22:27:40.871Z,16.55
2019-02-15T22:30:15.254Z,17.65
2019-02-15T22:32:44.133Z,18.23
2019-02-15T22:35:12.988Z,18.23
2019-02-15T22:37:41.880Z,16.97
2019-02-15T22:40:27.982Z,17.23
2019-02-15T22:42:59.127Z,18.32
2019-02-15T22:45:28.051Z,17.85
2019-02-15T22:47:56.929Z,35.23
2019-02-15T22:50:25.791Z,17.90
2019-02-15T22:52:54.649Z,17.55
2019-02-15T22:55:23.547Z,20.40
2019-02-15T22:57:52.439Z,22.50
2019-02-15T23:00:24.387Z,21.97
2019-02-15T23:02:53.269Z,23.32
2019-02-15T23:05:22.164Z,20.80
2019-02-15T23:07:51.023Z,27.35
2019-02-15T23:10:19.996Z,17.85
2019-02-15T23:12:48.859Z,18.15
2019-02-15T23:15:17.721Z,18.42
2019-02-15T23:17:46.611Z,18.20
2019-02-15T23:20:15.520Z,20.20
2019-02-15T23:22:44.378Z,18.05
2019-02-15T23:25:13.226Z,19.20
2019-02-15T23:27:42.107Z,22.45
2019-02-15T23:30:11.037Z,21.80
2019-02-15T23:32:39.927Z,19.85
2019-02-15T23:35:08.784Z,17.75
2019-02-15T23:37:37.650Z,19.07
2019-02-15T23:40:06.518Z,18.30
2019-02-15T23:42:35.406Z,18.87
2019-02-15T23:45:04.843Z,18.98
2019-02-15T23:47:33.710Z,18.37
2019-02-15T23:50:02.570Z,18.30
2019-02-15T23:52:31.441Z,17.57
2019-02-15T23:55:00.325Z,19.90
2019-02-15T23:57:29.199Z,21.25
2019-02-15T23:59:58.104Z,20.77
